createdAt,value
2022-11-05T00:27:19.687Z,23.75
2022-11-05T00:30:09.173Z,33.15
2022-11-05T00:33:30.312Z,25.80
2022-11-05T00:39:00.345Z,28.33
2022-11-05T00:41:38.785Z,32.38
2022-11-05T00:58:28.888Z,20.65
2022-11-05T01:01:28.102Z,20.25
2022-11-05T01:04:06.909Z,17.17
2022-11-05T01:06:42.657Z,31.42
2022-11-05T01:12:56.026Z,28.25
2022-11-05T01:15:48.303Z,26.73
2022-11-05T01:18:21.455Z,23.45
2022-11-05T01:20:52.816Z,31.20
2022-11-05T01:23:30.381Z,18.85
2022-11-05T01:26:08.146Z,16.67
2022-11-05T01:28:37.550Z,20.52
2022-11-05T01:31:10.241Z,18.25
2022-11-05T01:33:40.033Z,21.52
2022-11-05T01:36:21.629Z,17.23
2022-11-05T01:39:05.283Z,15.35
2022-11-05T01:41:40.561Z,17.90
2022-11-05T01:44:48.150Z,19.38
2022-11-05T01:47:53.708Z,17.85
2022-11-05T01:50:23.369Z,16.10
2022-11-05T01:53:06.084Z,16.80
2022-11-05T01:55:47.981Z,17.55
2022-11-05T01:58:19.667Z,22.45
2022-11-05T02:00:56.078Z,15.48
2022-11-05T02:14:42.479Z,17.30
2022-11-05T02:17:44.888Z,12.73
2022-11-05T02:21:23.177Z,19.08
2022-11-05T02:24:19.307Z,11.45
2022-11-05T02:27:33.871Z,22.08
2022-11-05T02:30:13.494Z,18.40
2022-11-05T02:33:01.371Z,26.70
2022-11-05T02:38:57.889Z,20.75
2022-11-05T02:42:03.642Z,24.25
2022-11-05T02:45:00.852Z,21.08
2022-11-05T02:47:48.647Z,18.95
2022-11-05T02:50:26.952Z,19.90
2022-11-05T02:53:01.843Z,20.60
2022-11-05T02:55:40.058Z,16.17
2022-11-05T02:58:07.146Z,20.20
2022-11-05T03:00:57.758Z,18.40
2022-11-05T03:03:27.039Z,20.95
2022-11-05T03:06:12.313Z,19.58
2022-11-05T03:09:02.239Z,17.38
2022-11-05T03:11:32.776Z,16.88
2022-11-05T03:14:26.742Z,21.60
2022-11-05T03:17:10.798Z,20.67
2022-11-05T03:20:01.717Z,23.42
2022-11-05T03:22:37.286Z,19.08
2022-11-05T03:25:16.005Z,18.40
2022-11-05T03:27:48.249Z,17.92
2022-11-05T03:30:20.929Z,18.65
2022-11-05T03:32:59.490Z,20.27
2022-11-05T03:35:35.180Z,16.48
2022-11-05T03:38:11.233Z,21.25
2022-11-05T03:40:42.968Z,17.15
2022-11-05T03:43:10.354Z,19.33
2022-11-05T03:46:01.026Z,18.58
2022-11-05T03:48:38.085Z,19.95
2022-11-05T03:51:31.379Z,17.67
2022-11-05T03:54:25.761Z,16.60
2022-11-05T03:57:04.213Z,17.48
2022-11-05T03:59:33.649Z,19.25
2022-11-05T04:02:00.391Z,14.88
2022-11-05T04:08:51.691Z,15.25
2022-11-05T04:11:36.844Z,19.25
2022-11-05T04:14:48.496Z,19.67
2022-11-05T04:17:18.196Z,21.98
2022-11-05T04:20:06.498Z,15.20
2022-11-05T04:22:54.505Z,17.38
2022-11-05T04:25:22.336Z,18.33
2022-11-05T04:27:49.802Z,19.63
2022-11-05T04:30:21.635Z,13.40
2022-11-05T04:33:15.526Z,20.30
2022-11-05T04:35:45.069Z,19.58
2022-11-05T04:38:14.961Z,16.65
2022-11-05T04:40:42.332Z,16.15
2022-11-05T04:43:15.099Z,19.50
2022-11-05T04:45:42.807Z,20.40
2022-11-05T04:48:10.137Z,17.88
2022-11-05T04:50:36.974Z,20.25
2022-11-05T04:53:03.895Z,21.50
2022-11-05T04:55:33.004Z,17.33
2022-11-05T04:58:10.023Z,17.20
2022-11-05T05:04:02.678Z,23.00
2022-11-05T05:06:35.348Z,19.33
2022-11-05T05:09:02.195Z,18.00
2022-11-05T05:13:58.873Z,15.73
2022-11-05T05:16:27.567Z,14.57
2022-11-05T05:19:04.180Z,18.83
2022-11-05T05:21:39.568Z,13.35
2022-11-05T05:24:15.605Z,20.17
2022-11-05T05:26:44.300Z,15.25
2022-11-05T05:29:11.570Z,14.68
2022-11-05T05:31:38.548Z,18.25
2022-11-05T05:34:06.336Z,23.48
2022-11-05T05:36:33.361Z,21.25
2022-11-05T05:38:59.862Z,24.63
2022-11-05T05:44:53.755Z,16.60
2022-11-05T05:48:17.704Z,16.88
2022-11-05T06:31:02.362Z,21.92
2022-11-05T06:33:31.951Z,22.90
2022-11-05T06:36:18.497Z,15.00
2022-11-05T07:49:54.900Z,19.98
2022-11-05T07:54:48.164Z,19.20
2022-11-05T07:59:41.533Z,21.38
2022-11-05T08:04:58.782Z,16.88
2022-11-05T08:07:25.358Z,16.38
2022-11-05T08:09:54.626Z,14.27
2022-11-05T08:12:21.094Z,16.60
2022-11-05T08:14:47.543Z,26.50
2022-11-05T08:17:20.481Z,14.93
2022-11-05T08:19:49.757Z,23.23
2022-11-05T08:22:16.306Z,23.63
2022-11-05T08:24:50.701Z,17.63
2022-11-05T08:27:25.152Z,14.32
2022-11-05T08:29:55.027Z,23.45
2022-11-05T08:36:20.702Z,24.20
2022-11-05T08:38:51.586Z,25.83
2022-11-05T08:44:32.120Z,15.50
2022-11-05T08:47:38.904Z,20.02
2022-11-05T08:50:41.433Z,18.52
2022-11-05T09:31:32.057Z,17.85
2022-11-05T09:34:03.482Z,23.65
2022-11-05T09:36:45.266Z,21.45
2022-11-05T09:39:12.117Z,28.55
2022-11-05T09:41:44.784Z,15.63
2022-11-05T09:44:24.789Z,24.10
2022-11-05T09:47:00.742Z,13.63
2022-11-05T09:49:44.448Z,20.27
2022-11-05T09:52:40.590Z,15.85
2022-11-05T09:55:20.834Z,17.73
2022-11-05T09:57:55.093Z,15.63
2022-11-05T10:27:12.194Z,16.20
2022-11-05T10:37:35.851Z,16.65
2022-11-05T10:49:04.156Z,14.00
2022-11-05T10:55:40.120Z,12.68
2022-11-05T11:02:43.348Z,12.38
2022-11-05T11:05:22.015Z,11.38
2022-11-05T11:23:11.560Z,8.65
2022-11-05T11:25:45.148Z,8.73
2022-11-05T11:28:32.687Z,12.82
2022-11-05T11:31:27.388Z,7.95
2022-11-05T11:34:03.816Z,12.85
2022-11-05T11:36:41.542Z,13.87
2022-11-05T11:39:17.852Z,12.93
2022-11-05T11:41:49.208Z,27.65
2022-11-05T11:44:19.260Z,13.98
2022-11-05T11:46:55.332Z,20.50
2022-11-05T11:49:36.469Z,16.50
2022-11-05T11:52:13.890Z,19.58
2022-11-05T11:57:25.672Z,17.40
2022-11-05T12:00:09.735Z,9.00
2022-11-05T12:02:57.288Z,7.75
2022-11-05T12:06:20.642Z,11.90
2022-11-05T12:13:34.533Z,13.45
2022-11-05T12:19:52.032Z,11.35
2022-11-05T12:22:36.923Z,9.82
2022-11-05T12:25:56.595Z,11.75
2022-11-05T12:36:06.604Z,12.75
2022-11-05T12:38:58.293Z,7.95
2022-11-05T12:41:58.757Z,15.52
2022-11-05T13:08:54.376Z,7.55
2022-11-05T13:12:24.902Z,8.02
2022-11-05T13:15:20.619Z,9.50
2022-11-05T13:21:48.729Z,15.40
2022-11-05T13:32:20.618Z,6.88
2022-11-05T13:35:23.938Z,9.32
2022-11-05T13:46:05.531Z,9.50
2022-11-05T13:48:55.167Z,16.75
2022-11-05T13:55:51.492Z,14.50
2022-11-05T13:58:23.754Z,9.13
2022-11-05T14:01:18.051Z,9.00
2022-11-05T14:03:57.241Z,4.03
2022-11-05T14:06:38.200Z,6.30
2022-11-05T14:09:13.534Z,11.70
2022-11-05T14:11:45.542Z,13.55
2022-11-05T14:18:19.397Z,6.97
2022-11-05T14:24:23.741Z,8.75
2022-11-05T14:27:13.017Z,10.10
2022-11-05T14:30:03.964Z,8.85
2022-11-05T14:32:50.856Z,7.50
2022-11-05T14:35:20.119Z,7.93
2022-11-05T14:38:02.699Z,11.68
2022-11-05T14:40:42.702Z,14.68
2022-11-05T14:43:19.273Z,12.13
2022-11-05T14:46:02.074Z,10.45
2022-11-05T14:48:44.379Z,9.43
2022-11-05T14:51:39.240Z,23.08
2022-11-05T14:54:25.864Z,14.63
2022-11-05T14:56:59.716Z,9.70
2022-11-05T14:59:31.593Z,12.70
2022-11-05T15:02:03.408Z,6.72
2022-11-05T15:04:47.653Z,11.57
2022-11-05T15:08:18.311Z,17.45
2022-11-05T15:14:13.244Z,7.30
2022-11-05T15:17:23.601Z,14.98
2022-11-05T15:20:03.176Z,14.48
2022-11-05T15:36:32.619Z,10.82
2022-11-05T15:39:27.873Z,7.43
2022-11-05T15:41:46.576Z,12.83
2022-11-05T15:44:24.996Z,14.38
2022-11-05T15:47:45.769Z,9.55
2022-11-05T15:50:15.467Z,4.93
2022-11-05T15:52:54.103Z,5.03
2022-11-05T15:55:25.577Z,5.20
2022-11-05T15:58:02.672Z,4.13
2022-11-05T16:00:32.497Z,9.88
2022-11-05T16:03:03.043Z,11.52
2022-11-05T16:06:08.467Z,6.22
2022-11-05T16:08:41.711Z,13.30
2022-11-05T16:11:14.569Z,8.35
2022-11-05T16:13:52.914Z,12.00
2022-11-05T16:16:43.113Z,4.10
2022-11-05T16:22:51.458Z,6.53
2022-11-05T16:29:03.473Z,7.63
2022-11-05T16:31:34.919Z,6.93
2022-11-05T16:34:04.162Z,6.25
2022-11-05T17:01:47.433Z,12.35
2022-11-05T17:03:41.008Z,7.47
2022-11-05T17:09:58.005Z,11.82
2022-11-05T17:13:10.740Z,7.03
2022-11-05T17:15:38.439Z,8.77
2022-11-05T17:18:05.536Z,9.00
2022-11-05T17:20:58.604Z,13.30
2022-11-05T17:24:20.373Z,11.95
2022-11-05T17:35:28.192Z,14.05
2022-11-05T22:53:13.113Z,18.90
2022-11-05T22:59:15.638Z,14.95
2022-11-05T23:01:44.257Z,22.75
2022-11-05T23:04:28.102Z,14.32
2022-11-05T23:08:02.163Z,16.08
2022-11-05T23:15:21.665Z,20.38
2022-11-05T23:25:50.270Z,14.15
2022-11-05T23:28:31.531Z,16.10
2022-11-05T23:31:21.110Z,12.15
2022-11-05T23:33:54.916Z,15.98
2022-11-05T23:36:47.839Z,12.20
2022-11-05T23:39:18.556Z,21.50
2022-11-05T23:42:12.851Z,12.85
2022-11-05T23:45:00.788Z,12.40
2022-11-05T23:47:55.914Z,10.70
2022-11-05T23:50:22.921Z,13.95
2022-11-05T23:53:07.305Z,9.80
2022-11-05T23:55:58.839Z,14.70
